createdAt,value
2018-07-20T01:35:01.234Z,40.36
2018-07-20T01:36:01.267Z,40.46
2018-07-20T01:37:01.337Z,40.56
2018-07-20T01:38:01.349Z,40.73
2018-07-20T01:39:01.372Z,40.64
2018-07-20T01:40:01.699Z,40.83
2018-07-20T01:41:01.435Z,40.73
2018-07-20T01:42:01.470Z,40.83
2018-07-20T01:43:01.496Z,40.83
2018-07-20T01:44:01.541Z,40.54
2018-07-20T01:45:01.576Z,40.92
2018-07-20T01:46:02.103Z,41.12
2018-07-20T01:47:01.634Z,41.22
2018-07-20T01:48:01.666Z,41.12
2018-07-20T01:49:01.705Z,41.22
2018-07-20T01:50:01.744Z,41.22
2018-07-20T01:51:01.763Z,41.22
2018-07-20T01:52:02.156Z,41.51
2018-07-20T01:53:02.110Z,41.51
2018-07-20T01:54:01.873Z,41.61
2018-07-20T01:55:01.909Z,41.22
2018-07-20T01:56:01.928Z,41.41
2018-07-20T01:57:01.980Z,41.12
2018-07-20T01:58:02.007Z,41.02
2018-07-20T01:59:02.292Z,40.92
2018-07-20T02:00:02.076Z,41.22
2018-07-20T02:01:02.098Z,41.12
2018-07-20T02:02:02.131Z,41.22
2018-07-20T02:03:02.171Z,41.02
2018-07-20T02:04:02.210Z,41.02
2018-07-20T02:05:02.244Z,41.02
2018-07-20T02:06:02.521Z,40.91
2018-07-20T02:07:02.300Z,41.30
2018-07-20T02:08:02.331Z,41.02
2018-07-20T02:09:02.469Z,41.58
2018-07-20T02:10:02.462Z,41.58
2018-07-20T02:11:02.440Z,41.49
2018-07-20T02:12:02.480Z,41.39
2018-07-20T02:13:02.753Z,41.39
2018-07-20T02:14:02.534Z,41.58
2018-07-20T02:15:02.560Z,41.49
2018-07-20T02:16:02.600Z,41.49
2018-07-20T02:17:02.631Z,41.58
2018-07-20T02:18:02.666Z,41.88
2018-07-20T02:19:02.702Z,41.78
2018-07-20T02:20:03.043Z,42.07
2018-07-20T02:21:02.775Z,42.17
2018-07-20T02:22:02.799Z,41.88
2018-07-20T02:23:02.838Z,42.07
2018-07-20T02:24:02.868Z,41.95
2018-07-20T02:25:02.900Z,42.17
2018-07-20T02:26:02.933Z,42.07
2018-07-20T02:27:03.229Z,42.07
2018-07-20T02:28:03.004Z,42.36
2018-07-20T02:29:03.032Z,42.14
2018-07-20T02:30:03.064Z,42.17
2018-07-20T02:31:03.094Z,42.26
2018-07-20T02:32:03.130Z,42.34
2018-07-20T02:33:03.159Z,42.24
2018-07-20T02:34:03.443Z,42.14
2018-07-20T02:35:03.228Z,42.54
2018-07-20T02:36:03.260Z,42.34
2018-07-20T02:37:03.295Z,42.05
2018-07-20T02:38:03.331Z,42.24
2018-07-20T02:39:03.355Z,42.54
2018-07-20T02:40:03.394Z,42.72
2018-07-20T02:41:03.733Z,42.14
2018-07-20T02:42:03.464Z,42.14
2018-07-20T02:43:03.485Z,42.17
2018-07-20T02:44:03.522Z,42.26
2018-07-20T02:45:03.559Z,42.05
2018-07-20T02:46:03.594Z,42.26
2018-07-20T02:47:03.619Z,42.05
2018-07-20T02:48:03.956Z,41.97
2018-07-20T02:49:03.697Z,42.26
2018-07-20T02:50:03.720Z,42.07
2018-07-20T02:51:03.752Z,41.97
2018-07-20T02:52:03.791Z,42.07
2018-07-20T02:53:03.829Z,41.58
2018-07-20T02:54:04.159Z,41.49
2018-07-20T02:55:04.146Z,41.39
2018-07-20T02:56:03.923Z,41.47
2018-07-20T02:57:03.960Z,41.58
2018-07-20T02:58:03.979Z,41.78
2018-07-20T02:59:04.033Z,42.14
2018-07-20T03:00:04.051Z,42.14
2018-07-20T03:01:04.090Z,42.14
2018-07-20T03:02:04.362Z,42.14
2018-07-20T03:03:04.146Z,42.34
2018-07-20T03:04:04.187Z,42.44
2018-07-20T03:05:04.219Z,42.63
2018-07-20T03:06:04.245Z,43.09
2018-07-20T03:07:04.277Z,43.00
2018-07-20T03:08:04.307Z,43.29
2018-07-20T03:09:04.679Z,43.19
2018-07-20T03:10:04.386Z,43.19
2018-07-20T03:11:04.418Z,43.29
2018-07-20T03:12:04.436Z,43.38
2018-07-20T03:13:04.477Z,43.38
2018-07-20T03:14:04.510Z,43.29
2018-07-20T03:15:04.541Z,43.29
2018-07-20T03:16:04.846Z,43.68
2018-07-20T03:17:04.602Z,43.68
2018-07-20T03:18:04.648Z,43.68
2018-07-20T03:19:04.671Z,43.68
2018-07-20T03:20:04.707Z,43.68
2018-07-20T03:21:04.853Z,44.26
2018-07-20T03:22:05.078Z,43.68
2018-07-20T03:23:04.811Z,43.68
2018-07-20T03:24:04.837Z,43.68
2018-07-20T03:25:04.896Z,43.77
2018-07-20T03:26:05.138Z,43.48
2018-07-20T03:27:04.938Z,43.77
2018-07-20T03:28:05.283Z,43.48
2018-07-20T03:29:04.996Z,43.29
2018-07-20T03:30:05.046Z,43.68
2018-07-20T03:31:05.069Z,43.87
2018-07-20T03:32:05.104Z,43.77
2018-07-20T03:33:05.329Z,43.68
2018-07-20T03:34:05.415Z,43.68
2018-07-20T03:35:05.196Z,43.77
2018-07-20T03:36:05.224Z,43.87
2018-07-20T03:37:05.258Z,43.87
2018-07-20T03:38:05.306Z,43.77
2018-07-20T03:39:05.328Z,43.48
2018-07-20T03:40:05.629Z,43.29
2018-07-20T03:41:05.385Z,43.09
2018-07-20T03:42:05.427Z,43.58
2018-07-20T03:43:05.452Z,43.19
2018-07-20T03:44:05.489Z,43.09
2018-07-20T03:45:05.531Z,43.38
2018-07-20T03:46:05.811Z,43.19
2018-07-20T03:47:05.609Z,43.09
2018-07-20T03:48:05.622Z,43.19
2018-07-20T03:49:05.933Z,43.38
2018-07-20T03:50:05.688Z,43.48
2018-07-20T03:51:05.711Z,43.48
2018-07-20T03:52:06.103Z,43.38
2018-07-20T03:53:05.781Z,43.77
2018-07-20T03:54:05.809Z,43.96
2018-07-20T03:55:05.845Z,44.35
2018-07-20T03:56:05.881Z,44.35
2018-07-20T03:57:05.913Z,44.26
2018-07-20T03:58:06.202Z,44.74
2018-07-20T03:59:05.972Z,44.64
2018-07-20T04:00:06.010Z,44.76
2018-07-20T04:01:06.048Z,44.86
2018-07-20T04:02:06.069Z,44.76
2018-07-20T04:03:06.107Z,44.37
2018-07-20T04:04:06.391Z,44.27
2018-07-20T04:05:06.165Z,44.47
2018-07-20T04:06:06.208Z,44.47
2018-07-20T04:07:06.325Z,44.01
2018-07-20T04:08:06.266Z,43.82
2018-07-20T04:09:06.296Z,43.62
2018-07-20T04:10:06.586Z,43.62
2018-07-20T04:11:06.367Z,43.72
2018-07-20T04:12:06.401Z,43.62
2018-07-20T04:13:06.427Z,43.52
2018-07-20T04:14:06.473Z,43.23
2018-07-20T04:15:06.614Z,43.52
2018-07-20T04:16:06.787Z,43.43
2018-07-20T04:17:06.565Z,43.45
2018-07-20T04:18:06.604Z,43.35
2018-07-20T04:19:06.624Z,43.64
2018-07-20T04:20:06.660Z,43.64
2018-07-20T04:21:06.690Z,42.77
2018-07-20T04:22:06.976Z,43.06
2018-07-20T04:23:06.767Z,43.26
2018-07-20T04:24:06.847Z,43.16
2018-07-20T04:25:06.830Z,42.96
2018-07-20T04:26:06.860Z,42.48
2018-07-20T04:27:06.892Z,42.89
2018-07-20T04:28:07.238Z,42.69
2018-07-20T04:29:06.954Z,42.48
2018-07-20T04:30:06.990Z,42.50
2018-07-20T04:31:07.032Z,42.50
2018-07-20T04:32:07.052Z,42.60
2018-07-20T04:33:07.098Z,42.21
2018-07-20T04:34:07.374Z,42.21
2018-07-20T04:35:07.164Z,42.11
2018-07-20T04:36:07.191Z,42.21
2018-07-20T04:37:07.232Z,42.50
2018-07-20T04:38:07.258Z,42.60
2018-07-20T04:39:07.294Z,42.50
2018-07-20T04:40:07.330Z,42.50
2018-07-20T04:41:07.614Z,42.50
2018-07-20T04:42:07.392Z,42.79
2018-07-20T04:43:07.425Z,42.50
2018-07-20T04:44:07.452Z,42.50
2018-07-20T04:45:07.492Z,42.50
2018-07-20T04:46:07.522Z,42.69
2018-07-20T04:47:07.554Z,42.33
2018-07-20T04:48:07.895Z,42.13
2018-07-20T04:49:07.632Z,42.13
2018-07-20T04:50:07.657Z,42.23
2018-07-20T04:51:07.690Z,42.13
2018-07-20T04:52:07.767Z,42.33
2018-07-20T04:53:07.759Z,42.43
2018-07-20T04:54:07.794Z,42.03
2018-07-20T04:55:08.080Z,42.13
2018-07-20T04:56:07.860Z,42.23
2018-07-20T04:57:07.894Z,42.23
2018-07-20T04:58:07.925Z,42.03
2018-07-20T04:59:07.973Z,42.03
2018-07-20T05:00:08.005Z,42.13
2018-07-20T05:01:08.030Z,42.03
2018-07-20T05:02:08.363Z,42.13
2018-07-20T05:03:08.095Z,42.23
2018-07-20T05:04:08.125Z,42.23
2018-07-20T05:05:08.158Z,42.13
2018-07-20T05:06:08.197Z,42.23
2018-07-20T05:07:08.218Z,42.33
2018-07-20T05:08:08.253Z,42.44
2018-07-20T05:09:08.589Z,42.05
2018-07-20T05:10:08.328Z,42.03
2018-07-20T05:11:08.362Z,42.05
2018-07-20T05:12:08.406Z,41.96
2018-07-20T05:13:08.427Z,41.96
2018-07-20T05:14:08.459Z,41.84
2018-07-20T05:15:08.491Z,41.86
2018-07-20T05:16:08.826Z,41.86
2018-07-20T05:17:08.570Z,41.86
2018-07-20T05:18:08.589Z,41.67
2018-07-20T05:19:08.622Z,41.67
2018-07-20T05:20:08.659Z,41.67
2018-07-20T05:21:08.701Z,41.77
2018-07-20T05:22:08.760Z,41.77
2018-07-20T05:23:09.127Z,41.57
2018-07-20T05:24:08.823Z,41.67
2018-07-20T05:25:08.824Z,41.67
2018-07-20T05:26:09.162Z,41.47
2018-07-20T05:27:09.505Z,41.67
2018-07-20T05:28:09.130Z,41.57
2018-07-20T05:29:08.961Z,41.57
2018-07-20T05:30:09.251Z,41.47
2018-07-20T05:31:09.032Z,41.38
2018-07-20T05:32:09.064Z,41.47
2018-07-20T05:33:09.095Z,41.38
2018-07-20T05:34:09.151Z,41.38
2018-07-20T05:35:09.165Z,41.38
2018-07-20T05:36:09.204Z,41.39
2018-07-20T05:37:09.479Z,41.57
2018-07-20T05:38:09.708Z,41.39
2018-07-20T05:39:09.319Z,41.38
2018-07-20T05:40:09.346Z,41.49
2018-07-20T05:41:09.381Z,41.57
2018-07-20T05:42:09.464Z,41.49
2018-07-20T05:43:09.437Z,41.59
2018-07-20T05:44:09.778Z,41.59
2018-07-20T05:45:09.506Z,41.59
2018-07-20T05:46:09.542Z,41.69
2018-07-20T05:47:09.588Z,41.69
2018-07-20T05:48:09.609Z,41.69
2018-07-20T05:49:09.641Z,41.57
2018-07-20T05:50:09.672Z,41.69
2018-07-20T05:51:09.956Z,41.59
2018-07-20T05:52:09.825Z,41.49
2018-07-20T05:53:09.775Z,41.69
2018-07-20T05:54:09.856Z,41.69
2018-07-20T05:55:09.843Z,41.59
2018-07-20T05:56:09.880Z,41.69
2018-07-20T05:57:10.103Z,41.69
2018-07-20T05:58:10.248Z,41.78
2018-07-20T05:59:09.976Z,41.78
2018-07-20T06:00:10.025Z,41.69
2018-07-20T06:01:10.052Z,41.49
2018-07-20T06:02:10.145Z,41.78
2018-07-20T06:03:10.122Z,41.30
2018-07-20T06:04:10.464Z,41.49
2018-07-20T06:05:10.185Z,41.49
2018-07-20T06:06:10.212Z,41.10
2018-07-20T06:07:10.250Z,41.20
2018-07-20T06:08:10.296Z,41.59
2018-07-20T06:09:10.330Z,41.01
2018-07-20T06:10:10.651Z,41.20
2018-07-20T06:11:10.381Z,41.39
2018-07-20T06:12:10.418Z,41.30
2018-07-20T06:13:10.454Z,41.30
2018-07-20T06:14:10.541Z,41.30
2018-07-20T06:15:10.521Z,41.30
2018-07-20T06:16:10.858Z,41.30
2018-07-20T06:17:10.605Z,41.30
2018-07-20T06:18:10.630Z,41.39
2018-07-20T06:19:10.661Z,41.49
2018-07-20T06:20:10.697Z,41.69
2018-07-20T06:21:10.787Z,41.69
2018-07-20T06:22:11.006Z,41.69
2018-07-20T06:23:10.791Z,41.49
2018-07-20T06:24:10.830Z,41.49
2018-07-20T06:25:10.875Z,41.13
2018-07-20T06:26:10.891Z,41.51
2018-07-20T06:27:10.932Z,41.39
2018-07-20T06:28:11.216Z,41.42
2018-07-20T06:29:10.999Z,41.32
2018-07-20T06:30:11.030Z,41.32
2018-07-20T06:31:11.067Z,41.22
2018-07-20T06:32:11.103Z,41.32
2018-07-20T06:33:11.151Z,41.32
2018-07-20T06:34:11.427Z,41.32
2018-07-20T06:35:11.254Z,41.13
2018-07-20T06:36:11.232Z,41.13
2018-07-20T06:37:11.266Z,41.13
2018-07-20T06:38:11.310Z,41.13
2018-07-20T06:39:11.342Z,41.13
2018-07-20T06:40:11.675Z,41.13
2018-07-20T06:41:11.406Z,41.13
2018-07-20T06:42:11.443Z,41.13
2018-07-20T06:43:17.753Z,41.13
2018-07-20T06:44:11.510Z,41.03
2018-07-20T06:45:11.552Z,41.03
2018-07-20T06:46:11.883Z,41.03
2018-07-20T06:47:11.615Z,41.13
2018-07-20T06:48:11.645Z,41.13
2018-07-20T06:49:11.685Z,41.13
2018-07-20T06:50:11.712Z,41.13
2018-07-20T06:51:11.750Z,41.13
2018-07-20T06:52:12.044Z,41.13
2018-07-20T06:53:11.820Z,41.13
2018-07-20T06:54:11.856Z,41.13
2018-07-20T06:55:12.089Z,40.93
2018-07-20T06:56:11.916Z,41.03
2018-07-20T06:57:12.008Z,41.03
2018-07-20T06:58:12.390Z,41.13
2018-07-20T06:59:12.026Z,41.03
2018-07-20T07:00:12.060Z,41.03
2018-07-20T07:01:12.205Z,41.22
2018-07-20T07:02:13.078Z,41.03
2018-07-20T07:03:12.169Z,41.13
2018-07-20T07:04:12.447Z,41.22
2018-07-20T07:05:12.238Z,41.13
2018-07-20T07:06:12.279Z,41.13
2018-07-20T07:07:13.081Z,41.13
2018-07-20T07:08:12.331Z,41.13
2018-07-20T07:09:12.382Z,41.22
2018-07-20T07:10:12.651Z,41.13
2018-07-20T07:11:12.436Z,41.03
2018-07-20T07:12:12.494Z,41.13
2018-07-20T07:13:12.500Z,41.13
2018-07-20T07:14:12.562Z,41.03
2018-07-20T07:15:12.614Z,41.13
2018-07-20T07:16:13.127Z,41.03
2018-07-20T07:17:12.642Z,41.13
2018-07-20T07:18:12.680Z,41.13
2018-07-20T07:19:12.707Z,41.13
2018-07-20T07:20:12.768Z,41.03
2018-07-20T07:21:12.777Z,41.13
2018-07-20T07:22:13.065Z,41.13
2018-07-20T07:23:12.848Z,41.14
2018-07-20T07:24:12.881Z,40.93
2018-07-20T07:25:12.916Z,40.85
2018-07-20T07:26:12.953Z,40.85
2018-07-20T07:27:13.001Z,41.13
2018-07-20T07:28:13.020Z,41.14
2018-07-20T07:29:13.378Z,40.66
2018-07-20T07:30:13.103Z,40.95
2018-07-20T07:31:13.131Z,40.85
2018-07-20T07:32:13.169Z,40.75
2018-07-20T07:33:13.264Z,40.85
2018-07-20T07:34:13.257Z,41.05
2018-07-20T07:35:13.561Z,40.95
2018-07-20T07:36:13.304Z,41.05
2018-07-20T07:37:13.528Z,41.05
2018-07-20T07:38:13.370Z,40.95
2018-07-20T07:39:13.396Z,41.14
2018-07-20T07:40:13.448Z,40.95
2018-07-20T07:41:13.741Z,40.95
2018-07-20T07:42:13.516Z,41.05
2018-07-20T07:43:13.538Z,41.34
2018-07-20T07:44:13.569Z,41.05
2018-07-20T07:45:13.617Z,40.95
2018-07-20T07:46:13.635Z,40.95
2018-07-20T07:47:14.542Z,40.85
2018-07-20T07:48:13.720Z,40.95
2018-07-20T07:49:13.782Z,40.85
2018-07-20T07:50:13.801Z,40.85
2018-07-20T07:51:13.828Z,40.95
2018-07-20T07:52:13.847Z,40.85
2018-07-20T07:53:14.216Z,40.85
2018-07-20T07:54:13.921Z,40.75
2018-07-20T07:55:13.952Z,40.75
2018-07-20T07:56:14.151Z,40.75
2018-07-20T07:57:14.024Z,40.75
2018-07-20T07:58:14.069Z,40.66
2018-07-20T07:59:14.388Z,40.37
2018-07-20T08:00:14.119Z,40.27
2018-07-20T08:01:14.162Z,40.08
2018-07-20T08:02:14.207Z,40.47
2018-07-20T08:03:14.274Z,40.37
2018-07-20T08:04:14.284Z,40.08
2018-07-20T08:05:14.557Z,40.37
2018-07-20T08:06:14.341Z,40.56
2018-07-20T08:07:14.367Z,40.56
2018-07-20T08:08:14.434Z,40.47
2018-07-20T08:09:14.480Z,40.47
2018-07-20T08:10:14.483Z,40.56
2018-07-20T08:11:14.873Z,40.47
2018-07-20T08:12:14.549Z,40.47
2018-07-20T08:13:14.571Z,40.37
2018-07-20T08:14:14.612Z,40.66
2018-07-20T08:15:14.741Z,40.37
2018-07-20T08:16:14.710Z,40.56
2018-07-20T08:17:15.028Z,40.56
2018-07-20T08:18:14.746Z,40.56
2018-07-20T08:19:14.784Z,40.48
2018-07-20T08:20:14.818Z,40.37
2018-07-20T08:21:15.170Z,40.47
2018-07-20T08:22:14.913Z,40.56
2018-07-20T08:23:15.343Z,40.47
2018-07-20T08:24:14.991Z,40.37
2018-07-20T08:25:15.002Z,40.58
2018-07-20T08:26:15.091Z,40.37
2018-07-20T08:27:15.317Z,40.27
2018-07-20T08:28:15.444Z,40.47
2018-07-20T08:29:15.401Z,40.37
2018-07-20T08:30:15.171Z,40.17
2018-07-20T08:31:15.191Z,40.27
2018-07-20T08:32:15.229Z,40.27
2018-07-20T08:33:15.266Z,40.27
2018-07-20T08:34:15.315Z,40.39
2018-07-20T08:35:15.599Z,40.27
2018-07-20T08:36:15.369Z,40.29
2018-07-20T08:37:15.400Z,40.19
2018-07-20T08:38:15.436Z,40.29
2018-07-20T08:39:15.477Z,40.29
2018-07-20T08:40:15.521Z,40.29
2018-07-20T08:41:15.894Z,40.19
2018-07-20T08:42:15.583Z,40.29
2018-07-20T08:43:15.618Z,40.09
2018-07-20T08:44:15.653Z,40.19
2018-07-20T08:45:15.828Z,40.29
2018-07-20T08:46:15.715Z,40.29
2018-07-20T08:47:16.137Z,40.00
2018-07-20T08:48:15.788Z,39.90
2018-07-20T08:49:15.821Z,39.80
2018-07-20T08:50:16.085Z,40.00
2018-07-20T08:51:16.086Z,40.00
2018-07-20T08:52:16.535Z,40.00
2018-07-20T08:53:16.222Z,40.09
2018-07-20T08:54:16.504Z,40.00
2018-07-20T08:55:16.231Z,40.19
2018-07-20T08:56:16.064Z,40.09
2018-07-20T08:57:16.256Z,40.09
2018-07-20T08:58:16.135Z,40.00
2018-07-20T08:59:16.510Z,40.00
2018-07-20T09:00:16.375Z,40.09
2018-07-20T09:01:16.239Z,40.00
2018-07-20T09:02:16.268Z,39.90
2018-07-20T09:03:16.304Z,39.90
2018-07-20T09:04:16.394Z,40.00
2018-07-20T09:05:17.251Z,40.00
2018-07-20T09:06:16.426Z,39.70
2018-07-20T09:07:16.456Z,39.70
2018-07-20T09:08:16.486Z,40.00
2018-07-20T09:09:16.517Z,39.90
2018-07-20T09:10:16.558Z,39.61
2018-07-20T09:11:16.847Z,39.61
2018-07-20T09:12:16.621Z,39.70
2018-07-20T09:13:16.651Z,39.61
2018-07-20T09:14:16.747Z,40.00
2018-07-20T09:15:16.734Z,39.61
2018-07-20T09:16:16.771Z,39.70
2018-07-20T09:17:17.132Z,39.24
2018-07-20T09:18:17.073Z,39.80
2018-07-20T09:19:16.865Z,39.92
2018-07-20T09:20:17.502Z,39.92
2018-07-20T09:21:17.132Z,39.51
2018-07-20T09:22:16.977Z,39.43
2018-07-20T09:23:17.260Z,39.92
2018-07-20T09:24:17.047Z,39.72
2018-07-20T09:25:17.077Z,39.70
2018-07-20T09:26:17.315Z,39.62
2018-07-20T09:27:17.145Z,39.24
2018-07-20T09:28:17.228Z,39.53
2018-07-20T09:29:17.617Z,39.43
2018-07-20T09:30:17.250Z,39.43
2018-07-20T09:31:17.504Z,39.53
2018-07-20T09:32:17.324Z,39.62
2018-07-20T09:33:17.356Z,39.53
2018-07-20T09:34:17.401Z,39.53
2018-07-20T09:35:17.677Z,39.53
2018-07-20T09:36:17.458Z,39.53
2018-07-20T09:37:17.505Z,39.43
2018-07-20T09:38:17.557Z,39.62
2018-07-20T09:39:17.568Z,39.43
2018-07-20T09:40:17.634Z,39.53
2018-07-20T09:41:17.887Z,39.53
2018-07-20T09:42:17.668Z,39.53
2018-07-20T09:43:17.706Z,39.53
2018-07-20T09:44:17.847Z,39.62
2018-07-20T09:45:17.783Z,39.62
2018-07-20T09:46:17.816Z,39.62
2018-07-20T09:47:18.344Z,39.24
2018-07-20T09:48:17.891Z,39.62
2018-07-20T09:49:17.911Z,39.14
2018-07-20T09:50:18.559Z,39.53
2018-07-20T09:51:18.147Z,39.43
2018-07-20T09:52:18.176Z,39.34
2018-07-20T09:53:18.317Z,39.24
2018-07-20T09:54:18.331Z,39.24
2018-07-20T09:55:18.130Z,39.24
2018-07-20T09:56:18.159Z,39.24
2018-07-20T09:57:18.204Z,39.34
2018-07-20T09:58:18.242Z,39.24
2018-07-20T09:59:18.570Z,39.24
2018-07-20T10:00:18.316Z,39.34
2018-07-20T10:01:18.336Z,39.04
2018-07-20T10:02:18.372Z,39.24
2018-07-20T10:03:18.408Z,39.24
2018-07-20T10:04:18.449Z,39.34
2018-07-20T10:05:18.734Z,39.34
2018-07-20T10:06:18.515Z,39.24
2018-07-20T10:07:18.544Z,39.04
2018-07-20T10:08:18.585Z,39.04
2018-07-20T10:09:18.616Z,39.14
2018-07-20T10:10:18.652Z,39.14
2018-07-20T10:11:19.048Z,39.24
2018-07-20T10:12:18.734Z,39.14
2018-07-20T10:13:18.761Z,39.14
2018-07-20T10:14:18.805Z,39.14
2018-07-20T10:15:18.830Z,39.14
2018-07-20T10:16:18.885Z,39.14
2018-07-20T10:17:19.196Z,39.14
2018-07-20T10:18:18.951Z,39.04
2018-07-20T10:19:18.972Z,39.24
2018-07-20T10:20:19.005Z,39.14
2018-07-20T10:21:19.144Z,39.16
2018-07-20T10:22:19.081Z,39.24
2018-07-20T10:23:19.366Z,39.04
2018-07-20T10:24:19.180Z,39.04
2018-07-20T10:25:19.181Z,39.04
2018-07-20T10:26:19.217Z,38.96
2018-07-20T10:27:19.300Z,39.06
2018-07-20T10:28:19.292Z,38.85
2018-07-20T10:29:19.627Z,38.87
2018-07-20T10:30:19.359Z,38.85
2018-07-20T10:31:19.390Z,38.96
2018-07-20T10:32:19.429Z,38.87
2018-07-20T10:33:19.470Z,38.87
2018-07-20T10:34:19.502Z,38.96
2018-07-20T10:35:19.793Z,39.06
2018-07-20T10:36:19.569Z,38.96
2018-07-20T10:37:19.619Z,39.06
2018-07-20T10:38:19.664Z,38.96
2018-07-20T10:39:19.690Z,39.16
2018-07-20T10:40:19.711Z,39.16
2018-07-20T10:41:20.056Z,39.26
2018-07-20T10:42:19.785Z,38.96
2018-07-20T10:43:19.819Z,39.06
2018-07-20T10:44:20.090Z,38.96
2018-07-20T10:45:20.088Z,39.06
2018-07-20T10:46:19.926Z,39.06
2018-07-20T10:47:20.492Z,39.06
2018-07-20T10:48:20.945Z,39.16
2018-07-20T10:49:21.031Z,39.06
2018-07-20T10:50:20.669Z,39.16
2018-07-20T10:51:20.135Z,39.06
2018-07-20T10:52:20.143Z,39.06
2018-07-20T10:53:20.496Z,39.06
2018-07-20T10:54:20.235Z,38.96
2018-07-20T10:55:20.248Z,39.06
2018-07-20T10:56:20.292Z,39.16
2018-07-20T10:57:20.365Z,39.06
2018-07-20T10:58:20.353Z,39.16
2018-07-20T10:59:20.685Z,39.26
2018-07-20T11:00:20.435Z,39.06
2018-07-20T11:01:20.517Z,39.06
2018-07-20T11:02:20.534Z,39.26
2018-07-20T11:03:20.536Z,39.16
2018-07-20T11:04:20.558Z,39.26
2018-07-20T11:05:21.134Z,39.26
2018-07-20T11:06:20.644Z,39.26
2018-07-20T11:07:20.681Z,39.16
2018-07-20T11:08:21.344Z,38.87
2018-07-20T11:09:20.741Z,39.26
2018-07-20T11:10:20.768Z,38.69
2018-07-20T11:11:21.101Z,38.57
2018-07-20T11:12:21.075Z,38.77
2018-07-20T11:13:21.489Z,38.77
2018-07-20T11:14:20.963Z,38.87
2018-07-20T11:15:21.429Z,39.26
2018-07-20T11:16:20.996Z,38.87
2018-07-20T11:17:21.270Z,38.77
2018-07-20T11:18:21.280Z,38.57
2018-07-20T11:19:22.228Z,38.48
2018-07-20T11:20:21.474Z,38.87
2018-07-20T11:21:21.166Z,38.59
2018-07-20T11:22:21.203Z,38.87
2018-07-20T11:23:21.579Z,38.67
2018-07-20T11:24:21.371Z,38.87
2018-07-20T11:25:21.308Z,38.77
2018-07-20T11:26:21.334Z,38.77
2018-07-20T11:27:21.373Z,38.87
2018-07-20T11:28:21.415Z,39.26
2018-07-20T11:29:21.454Z,39.26
2018-07-20T11:30:21.509Z,39.26
2018-07-20T11:31:21.512Z,39.36
2018-07-20T11:32:21.615Z,39.28
2018-07-20T11:33:21.601Z,38.87
2018-07-20T11:34:21.896Z,39.26
2018-07-20T11:35:21.663Z,38.89
2018-07-20T11:36:21.695Z,38.77
2018-07-20T11:37:21.728Z,39.26
2018-07-20T11:38:21.771Z,39.28
2018-07-20T11:39:21.883Z,38.79
2018-07-20T11:40:22.339Z,39.28
2018-07-20T11:41:21.873Z,38.79
2018-07-20T11:42:21.928Z,38.59
2018-07-20T11:43:21.959Z,38.59
2018-07-20T11:44:22.401Z,38.49
2018-07-20T11:45:22.239Z,38.59
2018-07-20T11:46:22.312Z,38.59
2018-07-20T11:47:22.087Z,38.59
2018-07-20T11:48:22.326Z,38.59
2018-07-20T11:49:22.155Z,38.49
2018-07-20T11:50:22.198Z,38.30
2018-07-20T11:51:22.224Z,38.49
2018-07-20T11:52:22.266Z,38.49
2018-07-20T11:53:22.545Z,38.59
2018-07-20T11:54:22.343Z,38.59
2018-07-20T11:55:22.367Z,38.49
2018-07-20T11:56:22.412Z,38.59
2018-07-20T11:57:22.450Z,38.59
2018-07-20T11:58:22.473Z,38.49
2018-07-20T11:59:22.758Z,38.59
2018-07-20T12:00:22.548Z,38.49
2018-07-20T12:01:22.612Z,38.49
2018-07-20T12:02:22.620Z,38.49
2018-07-20T12:03:22.659Z,38.40
2018-07-20T12:04:22.689Z,38.49
2018-07-20T12:05:23.150Z,38.49
2018-07-20T12:06:22.824Z,38.49
2018-07-20T12:07:22.794Z,38.30
2018-07-20T12:08:22.828Z,38.40
2018-07-20T12:09:22.869Z,38.49
2018-07-20T12:10:22.938Z,38.40
2018-07-20T12:11:23.246Z,38.49
2018-07-20T12:12:22.979Z,38.49
2018-07-20T12:13:23.022Z,38.49
2018-07-20T12:14:23.055Z,38.49
2018-07-20T12:15:23.105Z,38.49
2018-07-20T12:16:23.121Z,38.30
2018-07-20T12:17:23.405Z,38.30
2018-07-20T12:18:23.389Z,38.30
2018-07-20T12:19:23.233Z,38.30
2018-07-20T12:20:23.751Z,38.30
2018-07-20T12:21:23.311Z,38.40
2018-07-20T12:22:23.337Z,38.30
2018-07-20T12:23:23.626Z,38.49
2018-07-20T12:24:23.416Z,38.40
2018-07-20T12:25:23.457Z,38.40
2018-07-20T12:26:23.489Z,38.20
2018-07-20T12:27:23.509Z,38.20
2018-07-20T12:28:23.753Z,38.10
2018-07-20T12:29:23.831Z,38.20
2018-07-20T12:30:23.786Z,38.20
2018-07-20T12:31:23.662Z,38.30
2018-07-20T12:32:23.694Z,38.40
2018-07-20T12:33:23.726Z,38.30
2018-07-20T12:34:23.762Z,38.20
2018-07-20T12:35:24.101Z,38.10
2018-07-20T12:36:23.844Z,38.10
2018-07-20T12:37:23.872Z,38.12
2018-07-20T12:38:23.936Z,38.22
2018-07-20T12:39:24.140Z,38.12
2018-07-20T12:40:23.985Z,38.12
2018-07-20T12:41:24.265Z,38.22
2018-07-20T12:42:24.067Z,38.12
2018-07-20T12:43:24.097Z,38.22
2018-07-20T12:44:24.153Z,38.10
2018-07-20T12:45:24.161Z,38.12
2018-07-20T12:46:24.260Z,38.22
2018-07-20T12:47:24.481Z,38.02
2018-07-20T12:48:24.273Z,38.02
2018-07-20T12:49:24.309Z,38.02
2018-07-20T12:50:24.407Z,38.02
2018-07-20T12:51:24.429Z,38.12
2018-07-20T12:52:24.415Z,38.12
2018-07-20T12:53:24.831Z,38.02
2018-07-20T12:54:24.481Z,37.83
2018-07-20T12:55:24.514Z,38.12
2018-07-20T12:56:24.563Z,38.12
2018-07-20T12:57:24.604Z,37.83
2018-07-20T12:58:24.667Z,37.73
2018-07-20T12:59:24.922Z,37.73
2018-07-20T13:00:24.704Z,37.63
2018-07-20T13:01:24.757Z,37.73
2018-07-20T13:02:24.771Z,37.63
2018-07-20T13:03:24.808Z,37.73
2018-07-20T13:04:24.843Z,37.63
2018-07-20T13:05:25.195Z,37.65
2018-07-20T13:06:24.972Z,37.73
2018-07-20T13:07:24.952Z,37.73
2018-07-20T13:08:24.997Z,37.93
2018-07-20T13:09:25.153Z,37.85
2018-07-20T13:10:25.175Z,37.83
2018-07-20T13:11:25.422Z,37.95
2018-07-20T13:12:25.177Z,37.85
2018-07-20T13:13:25.173Z,37.95
2018-07-20T13:14:25.213Z,37.65
2018-07-20T13:15:25.244Z,37.85
2018-07-20T13:16:25.287Z,37.75
2018-07-20T13:17:26.225Z,37.37
2018-07-20T13:18:25.356Z,37.46
2018-07-20T13:19:25.386Z,37.37
2018-07-20T13:20:25.437Z,37.07
2018-07-20T13:21:25.492Z,37.27
2018-07-20T13:22:25.499Z,37.19
2018-07-20T13:23:25.848Z,36.99
2018-07-20T13:24:25.584Z,37.09
2018-07-20T13:25:25.619Z,36.90
2018-07-20T13:26:25.647Z,36.99
2018-07-20T13:27:25.789Z,37.09
2018-07-20T13:28:25.736Z,36.99
2018-07-20T13:29:26.010Z,36.70
2018-07-20T13:30:25.796Z,36.60
2018-07-20T13:31:25.841Z,36.90
2018-07-20T13:32:26.108Z,36.41
2018-07-20T13:33:25.939Z,36.52
2018-07-20T13:34:26.157Z,36.33
2018-07-20T13:35:26.230Z,36.52
2018-07-20T13:36:26.021Z,36.43
2018-07-20T13:37:26.261Z,36.04
2018-07-20T13:38:26.124Z,36.13
2018-07-20T13:39:26.161Z,36.04
2018-07-20T13:40:26.177Z,35.94
2018-07-20T13:41:26.472Z,35.95
2018-07-20T13:42:26.273Z,35.95
2018-07-20T13:43:26.282Z,35.85
2018-07-20T13:44:26.322Z,35.75
2018-07-20T13:45:26.422Z,35.66
2018-07-20T13:46:26.395Z,35.56
2018-07-20T13:47:26.689Z,35.56
2018-07-20T13:48:26.474Z,35.27
2018-07-20T13:49:26.510Z,35.48
2018-07-20T13:50:26.544Z,35.38
2018-07-20T13:51:26.587Z,35.19
2018-07-20T13:52:26.640Z,35.19
2018-07-20T13:53:27.141Z,35.19
2018-07-20T13:54:26.702Z,34.89
2018-07-20T13:55:26.755Z,34.99
2018-07-20T13:56:26.775Z,34.89
2018-07-20T13:57:27.421Z,34.89
2018-07-20T13:58:26.877Z,34.81
2018-07-20T13:59:27.204Z,35.01
2018-07-20T14:00:26.944Z,34.81
2018-07-20T14:01:27.443Z,34.33
2018-07-20T14:02:27.457Z,34.81
2018-07-20T14:03:27.084Z,34.62
2018-07-20T14:04:27.288Z,34.42
2018-07-20T14:05:27.370Z,34.42
2018-07-20T14:06:27.158Z,34.05
2018-07-20T14:07:27.239Z,34.05
2018-07-20T14:08:27.511Z,33.95
2018-07-20T14:09:27.277Z,34.14
2018-07-20T14:10:27.520Z,33.85
2018-07-20T14:11:27.824Z,33.85
2018-07-20T14:12:27.391Z,33.75
2018-07-20T14:13:27.737Z,33.85
2018-07-20T14:14:27.468Z,33.65
2018-07-20T14:15:27.506Z,33.46
2018-07-20T14:16:27.552Z,33.75
2018-07-20T14:17:27.584Z,33.77
2018-07-20T14:18:27.629Z,33.77
2018-07-20T14:19:27.699Z,33.67
2018-07-20T14:20:27.702Z,33.38
2018-07-20T14:21:27.742Z,33.18
2018-07-20T14:22:28.382Z,33.18
2018-07-20T14:23:28.332Z,33.09
2018-07-20T14:24:28.025Z,33.20
2018-07-20T14:25:27.904Z,32.71
2018-07-20T14:26:28.183Z,32.71
2018-07-20T14:27:28.177Z,32.81